createdAt,value
2018-10-03T00:01:20.669Z,11.02
2018-10-03T00:03:49.003Z,10.96
2018-10-03T00:06:17.289Z,10.92
2018-10-03T00:08:45.576Z,10.88
2018-10-03T00:11:13.860Z,10.84
2018-10-03T00:13:42.190Z,10.84
2018-10-03T00:16:10.471Z,10.81
2018-10-03T00:18:38.754Z,10.81
2018-10-03T00:21:07.042Z,10.80
2018-10-03T00:23:35.328Z,10.76
2018-10-03T00:26:03.615Z,10.81
2018-10-03T00:28:31.895Z,10.73
2018-10-03T00:31:00.195Z,10.79
2018-10-03T00:33:28.478Z,10.80
2018-10-03T00:35:56.763Z,10.87
2018-10-03T00:38:25.055Z,10.86
2018-10-03T00:40:53.339Z,10.97
2018-10-03T00:43:21.631Z,10.98
2018-10-03T00:45:49.926Z,11.02
2018-10-03T00:48:18.223Z,10.88
2018-10-03T00:50:46.508Z,10.84
2018-10-03T00:53:15.755Z,10.81
2018-10-03T00:55:44.047Z,10.81
2018-10-03T00:58:12.335Z,10.73
2018-10-03T01:00:40.635Z,10.67
2018-10-03T01:03:08.923Z,10.82
2018-10-03T01:05:37.219Z,10.80
2018-10-03T01:08:05.521Z,10.80
2018-10-03T01:10:33.815Z,10.92
2018-10-03T01:13:02.112Z,10.81
2018-10-03T01:15:30.395Z,10.89
2018-10-03T01:17:58.691Z,10.97
2018-10-03T01:20:26.991Z,11.01
2018-10-03T01:22:55.276Z,11.17
2018-10-03T01:25:23.551Z,11.14
2018-10-03T01:27:51.843Z,11.06
2018-10-03T01:30:20.128Z,11.18
2018-10-03T01:32:48.410Z,11.13
2018-10-03T01:35:16.692Z,11.20
2018-10-03T01:37:44.967Z,11.25
2018-10-03T01:40:13.260Z,11.25
2018-10-03T01:42:41.540Z,11.28
2018-10-03T01:45:09.838Z,11.28
2018-10-03T01:47:38.127Z,11.26
2018-10-03T01:50:06.424Z,11.19
2018-10-03T01:52:34.704Z,11.31
2018-10-03T01:55:02.980Z,11.29
2018-10-03T01:57:31.271Z,11.35
2018-10-03T02:00:00.252Z,11.29
2018-10-03T02:02:28.539Z,11.38
2018-10-03T02:04:56.819Z,11.38
2018-10-03T02:07:25.119Z,11.22
2018-10-03T02:09:53.399Z,11.35
2018-10-03T02:12:21.679Z,11.43
2018-10-03T02:14:49.988Z,11.32
2018-10-03T02:17:18.248Z,11.39
2018-10-03T02:19:46.538Z,11.39
2018-10-03T02:22:14.815Z,11.44
2018-10-03T02:24:43.094Z,11.38
2018-10-03T02:27:11.386Z,11.35
2018-10-03T02:29:39.694Z,11.26
2018-10-03T02:32:07.979Z,11.37
2018-10-03T02:34:36.267Z,11.26
2018-10-03T02:37:04.563Z,11.24
2018-10-03T02:39:32.854Z,11.39
2018-10-03T02:42:01.135Z,11.40
2018-10-03T02:44:29.418Z,11.44
2018-10-03T02:46:57.703Z,11.37
2018-10-03T02:49:26.001Z,11.40
2018-10-03T02:51:54.291Z,11.33
2018-10-03T02:54:22.579Z,11.43
2018-10-03T02:56:50.859Z,11.46
2018-10-03T02:59:19.147Z,11.42
2018-10-03T03:01:47.447Z,11.27
2018-10-03T03:04:15.735Z,11.30
2018-10-03T03:06:44.031Z,11.29
2018-10-03T03:09:12.323Z,11.39
2018-10-03T03:11:40.611Z,11.33
2018-10-03T03:14:08.895Z,11.30
2018-10-03T03:16:37.192Z,11.38
2018-10-03T03:19:05.487Z,11.38
2018-10-03T03:21:33.781Z,11.34
2018-10-03T03:24:02.070Z,11.32
2018-10-03T03:26:30.368Z,11.29
2018-10-03T03:28:58.659Z,11.27
2018-10-03T03:31:26.947Z,11.32
2018-10-03T03:33:55.244Z,11.25
2018-10-03T03:36:23.532Z,11.20
2018-10-03T03:38:51.831Z,11.25
2018-10-03T03:41:20.124Z,11.15
2018-10-03T03:43:48.419Z,11.14
2018-10-03T03:46:16.707Z,11.15
2018-10-03T03:48:45.006Z,11.23
2018-10-03T03:51:13.310Z,11.21
2018-10-03T03:53:41.594Z,11.13
2018-10-03T03:56:09.930Z,11.17
2018-10-03T03:58:38.192Z,11.16
2018-10-03T04:01:06.488Z,11.15
2018-10-03T04:03:34.784Z,11.09
2018-10-03T04:06:03.079Z,11.15
2018-10-03T04:08:31.379Z,11.16
2018-10-03T04:10:59.679Z,11.19
2018-10-03T04:13:27.979Z,11.16
2018-10-03T04:15:56.274Z,11.15
2018-10-03T04:18:24.568Z,11.24
2018-10-03T04:20:52.857Z,11.25
2018-10-03T04:23:21.163Z,11.18
2018-10-03T04:25:49.483Z,11.28
2018-10-03T04:28:17.775Z,11.33
2018-10-03T04:30:46.060Z,11.38
2018-10-03T04:33:14.359Z,11.44
2018-10-03T04:35:42.691Z,11.44
2018-10-03T04:38:10.946Z,11.52
2018-10-03T04:40:39.233Z,11.36
2018-10-03T04:43:07.522Z,11.38
2018-10-03T04:45:35.807Z,11.53
2018-10-03T04:48:04.103Z,11.53
2018-10-03T04:50:32.387Z,11.57
2018-10-03T04:53:01.611Z,11.59
2018-10-03T04:55:29.895Z,11.56
2018-10-03T04:57:58.189Z,11.54
2018-10-03T05:00:26.463Z,11.61
2018-10-03T05:02:54.769Z,11.53
2018-10-03T05:05:23.047Z,11.52
2018-10-03T05:07:51.351Z,11.57
2018-10-03T05:10:19.647Z,11.59
2018-10-03T05:12:47.947Z,11.59
2018-10-03T05:15:16.236Z,11.58
2018-10-03T05:17:44.539Z,11.58
2018-10-03T05:20:12.832Z,11.49
2018-10-03T05:22:41.122Z,11.50
2018-10-03T05:25:09.404Z,11.52
2018-10-03T05:27:37.702Z,11.56
2018-10-03T05:30:05.995Z,11.47
2018-10-03T05:32:34.288Z,11.41
2018-10-03T05:35:02.566Z,11.47
2018-10-03T05:37:30.867Z,11.54
2018-10-03T05:39:59.157Z,11.48
2018-10-03T05:42:27.447Z,11.58
2018-10-03T05:44:55.726Z,11.63
2018-10-03T05:47:24.019Z,11.62
2018-10-03T05:49:52.295Z,11.63
2018-10-03T05:52:20.582Z,11.68
2018-10-03T05:54:48.938Z,11.64
2018-10-03T05:57:17.162Z,11.65
2018-10-03T05:59:45.442Z,11.72
2018-10-03T06:02:13.737Z,11.68
2018-10-03T06:04:42.017Z,11.95
2018-10-03T06:07:10.303Z,11.81
2018-10-03T06:09:38.587Z,11.89
2018-10-03T06:12:06.936Z,11.96
2018-10-03T06:14:35.271Z,11.90
2018-10-03T06:17:03.550Z,11.89
2018-10-03T06:19:31.843Z,11.93
2018-10-03T06:22:00.141Z,11.96
2018-10-03T06:24:28.419Z,12.01
2018-10-03T06:26:56.719Z,11.96
2018-10-03T06:29:24.999Z,12.07
2018-10-03T06:31:53.301Z,12.05
2018-10-03T06:34:21.575Z,12.02
2018-10-03T06:36:49.866Z,12.06
2018-10-03T06:39:18.159Z,11.93
2018-10-03T06:41:46.455Z,12.08
2018-10-03T06:44:14.752Z,12.04
2018-10-03T06:46:43.032Z,11.99
2018-10-03T06:49:11.334Z,12.02
2018-10-03T06:51:39.616Z,12.07
2018-10-03T06:54:07.900Z,11.91
2018-10-03T06:56:36.206Z,12.17
2018-10-03T06:59:04.482Z,12.15
2018-10-03T07:01:32.759Z,12.03
2018-10-03T07:04:01.055Z,11.87
2018-10-03T07:06:29.359Z,11.81
2018-10-03T07:08:57.659Z,11.78
2018-10-03T07:11:25.943Z,11.71
2018-10-03T07:13:54.235Z,11.67
2018-10-03T07:16:22.517Z,11.73
2018-10-03T07:18:50.795Z,11.76
2018-10-03T07:21:19.083Z,11.80
2018-10-03T07:23:47.370Z,11.68
2018-10-03T07:26:15.727Z,11.88
2018-10-03T07:28:43.954Z,11.77
2018-10-03T07:31:12.239Z,11.66
2018-10-03T07:33:40.520Z,11.87
2018-10-03T07:36:08.815Z,11.79
2018-10-03T07:38:37.099Z,11.75
2018-10-03T07:41:05.375Z,11.81
2018-10-03T07:43:33.669Z,11.76
2018-10-03T07:46:01.947Z,11.75
2018-10-03T07:48:30.251Z,11.86
2018-10-03T07:50:58.538Z,11.54
2018-10-03T07:53:26.884Z,11.59
2018-10-03T07:55:55.127Z,11.61
2018-10-03T07:58:23.411Z,11.66
2018-10-03T08:00:51.711Z,11.70
2018-10-03T08:03:19.999Z,11.64
2018-10-03T08:05:48.295Z,11.62
2018-10-03T08:08:16.575Z,11.85
2018-10-03T08:10:44.857Z,12.06
2018-10-03T08:13:13.147Z,11.93
2018-10-03T08:15:41.527Z,11.91
2018-10-03T08:18:09.778Z,12.30
2018-10-03T08:20:38.087Z,12.47
2018-10-03T08:23:06.362Z,12.23
2018-10-03T08:25:34.643Z,12.24
2018-10-03T08:28:02.939Z,12.28
2018-10-03T08:30:31.223Z,12.25
2018-10-03T08:32:59.620Z,12.30
2018-10-03T08:35:27.806Z,12.33
2018-10-03T08:37:56.089Z,12.30
2018-10-03T08:40:24.367Z,12.25
2018-10-03T08:42:52.659Z,12.24
2018-10-03T08:45:20.968Z,12.60
2018-10-03T08:47:49.222Z,12.96
2018-10-03T08:50:17.514Z,13.19
2018-10-03T08:52:45.807Z,13.26
2018-10-03T08:55:14.087Z,13.41
2018-10-03T08:57:42.376Z,13.53
2018-10-03T09:00:10.667Z,13.70
2018-10-03T09:02:38.963Z,13.75
2018-10-03T09:05:07.247Z,13.78
2018-10-03T09:07:36.386Z,13.82
2018-10-03T09:10:04.679Z,14.00
2018-10-03T09:12:32.975Z,14.09
2018-10-03T09:15:01.256Z,13.94
2018-10-03T09:17:29.551Z,14.14
2018-10-03T09:19:57.839Z,14.37
2018-10-03T09:22:26.127Z,14.39
2018-10-03T09:24:54.406Z,14.39
2018-10-03T09:27:22.703Z,14.51
2018-10-03T09:29:50.991Z,14.44
2018-10-03T09:32:19.279Z,14.52
2018-10-03T09:34:47.569Z,14.59
2018-10-03T09:37:15.858Z,14.68
2018-10-03T09:39:44.155Z,14.65
2018-10-03T09:42:12.448Z,14.62
2018-10-03T09:44:40.822Z,14.70
2018-10-03T09:47:09.033Z,14.56
2018-10-03T09:49:37.319Z,14.49
2018-10-03T09:52:05.611Z,14.46
2018-10-03T09:54:33.904Z,14.59
2018-10-03T09:57:02.204Z,14.57
2018-10-03T09:59:30.486Z,14.54
2018-10-03T10:01:58.771Z,14.71
2018-10-03T10:04:27.063Z,14.73
2018-10-03T10:06:55.359Z,14.92
2018-10-03T10:09:23.643Z,14.72
2018-10-03T10:11:51.941Z,14.78
2018-10-03T10:14:20.223Z,15.10
2018-10-03T10:16:48.514Z,14.99
2018-10-03T10:19:16.799Z,14.92
2018-10-03T10:21:45.095Z,15.03
2018-10-03T10:24:13.384Z,15.11
2018-10-03T10:26:41.671Z,15.28
2018-10-03T10:29:09.950Z,15.40
2018-10-03T10:31:38.247Z,15.44
2018-10-03T10:34:06.520Z,15.74
2018-10-03T10:36:34.819Z,15.78
2018-10-03T10:39:03.095Z,15.68
2018-10-03T10:41:31.516Z,15.86
2018-10-03T10:43:59.683Z,15.58
2018-10-03T10:46:27.983Z,15.46
2018-10-03T10:48:56.273Z,15.38
2018-10-03T10:51:24.568Z,15.56
2018-10-03T10:53:52.839Z,15.74
2018-10-03T10:56:21.135Z,15.78
2018-10-03T10:58:49.411Z,15.84
2018-10-03T11:01:17.735Z,15.91
2018-10-03T11:03:46.030Z,16.20
2018-10-03T11:06:14.412Z,16.21
2018-10-03T11:08:42.683Z,16.02
2018-10-03T11:11:10.980Z,16.10
2018-10-03T11:13:39.259Z,15.98
2018-10-03T11:16:07.547Z,16.25
2018-10-03T11:18:35.827Z,16.12
2018-10-03T11:21:04.123Z,15.68
2018-10-03T11:23:32.441Z,15.92
2018-10-03T11:26:00.715Z,15.98
2018-10-03T11:28:28.998Z,15.82
2018-10-03T11:30:57.291Z,16.03
2018-10-03T11:33:25.579Z,16.06
2018-10-03T11:35:53.876Z,16.21
2018-10-03T11:38:22.324Z,16.23
2018-10-03T11:40:50.467Z,16.44
2018-10-03T11:43:18.754Z,16.58
2018-10-03T11:45:47.047Z,16.56
2018-10-03T11:48:15.329Z,16.57
2018-10-03T11:50:43.669Z,16.64
2018-10-03T11:53:11.887Z,16.57
2018-10-03T11:55:40.179Z,16.27
2018-10-03T11:58:08.464Z,16.00
2018-10-03T12:00:36.739Z,16.13
2018-10-03T12:03:05.104Z,16.36
2018-10-03T12:05:33.315Z,16.32
2018-10-03T12:08:01.591Z,16.38
2018-10-03T12:10:29.883Z,16.20
2018-10-03T12:12:58.163Z,16.16
2018-10-03T12:15:26.462Z,16.18
2018-10-03T12:17:54.743Z,16.00
2018-10-03T12:20:23.043Z,15.82
2018-10-03T12:22:51.318Z,15.88
2018-10-03T12:25:19.650Z,15.87
2018-10-03T12:27:47.942Z,15.91
2018-10-03T12:30:17.010Z,16.04
2018-10-03T12:32:45.312Z,15.80
2018-10-03T12:35:13.595Z,15.84
2018-10-03T12:37:41.880Z,15.81
2018-10-03T12:40:10.175Z,15.79
2018-10-03T12:42:38.475Z,15.59
2018-10-03T12:45:06.774Z,15.55
2018-10-03T12:47:35.047Z,15.55
2018-10-03T12:50:03.336Z,15.57
2018-10-03T12:52:31.622Z,15.63
2018-10-03T12:54:59.915Z,15.61
2018-10-03T12:57:28.210Z,15.63
2018-10-03T12:59:56.507Z,15.58
2018-10-03T13:02:24.802Z,15.61
2018-10-03T13:04:53.108Z,15.48
2018-10-03T13:07:21.386Z,15.58
2018-10-03T13:09:49.691Z,15.70
2018-10-03T13:12:17.991Z,15.69
2018-10-03T13:14:46.279Z,15.73
2018-10-03T13:17:14.578Z,15.64
2018-10-03T13:19:43.003Z,15.68
2018-10-03T13:22:11.283Z,15.75
2018-10-03T13:24:39.591Z,15.83
2018-10-03T13:27:07.885Z,15.66
2018-10-03T13:29:36.164Z,15.58
2018-10-03T13:32:04.463Z,15.78
2018-10-03T13:34:33.063Z,15.56
2018-10-03T13:37:01.367Z,15.63
2018-10-03T13:39:29.665Z,15.66
2018-10-03T13:41:57.959Z,15.68
2018-10-03T13:44:26.255Z,15.97
2018-10-03T13:46:54.531Z,16.26
2018-10-03T13:49:22.815Z,16.13
2018-10-03T13:51:51.093Z,16.24
2018-10-03T13:54:19.375Z,16.30
2018-10-03T13:56:47.652Z,16.13
2018-10-03T13:59:15.942Z,16.04
2018-10-03T14:01:44.527Z,16.16
2018-10-03T14:04:12.834Z,16.01
2018-10-03T14:06:41.131Z,16.15
2018-10-03T14:09:09.402Z,16.36
2018-10-03T14:11:37.697Z,16.35
2018-10-03T14:14:05.979Z,16.20
2018-10-03T14:16:34.284Z,16.20
2018-10-03T14:19:02.571Z,16.00
2018-10-03T14:21:30.854Z,16.14
2018-10-03T14:23:59.167Z,16.00
2018-10-03T14:26:28.432Z,16.10
2018-10-03T14:28:56.741Z,16.17
2018-10-03T14:31:25.038Z,16.09
2018-10-03T14:33:53.335Z,16.08
2018-10-03T14:36:21.627Z,15.98
2018-10-03T14:38:49.923Z,15.96
2018-10-03T14:41:18.223Z,15.83
2018-10-03T14:43:46.524Z,15.66
2018-10-03T14:46:14.832Z,15.85
2018-10-03T14:48:43.123Z,15.87
2018-10-03T14:51:11.431Z,15.85
2018-10-03T14:53:39.723Z,15.91
2018-10-03T14:56:08.018Z,15.88
2018-10-03T14:58:36.433Z,15.92
2018-10-03T15:01:04.604Z,15.92
2018-10-03T15:03:32.891Z,15.98
2018-10-03T15:06:01.184Z,15.84
2018-10-03T15:08:29.477Z,15.95
2018-10-03T15:10:57.763Z,16.02
2018-10-03T15:13:26.064Z,16.03
2018-10-03T15:15:54.362Z,15.99
2018-10-03T15:18:22.720Z,15.94
2018-10-03T15:20:50.939Z,15.84
2018-10-03T15:23:19.231Z,15.93
2018-10-03T15:25:47.527Z,15.85
2018-10-03T15:28:15.832Z,15.82
2018-10-03T15:30:44.131Z,15.88
2018-10-03T15:33:12.408Z,15.81
2018-10-03T15:35:40.699Z,15.81
2018-10-03T15:38:08.992Z,15.77
2018-10-03T15:40:37.283Z,15.55
2018-10-03T15:43:05.559Z,15.45
2018-10-03T15:45:33.842Z,15.55
2018-10-03T15:48:02.126Z,15.43
2018-10-03T15:50:30.403Z,15.42
2018-10-03T15:52:58.691Z,15.27
2018-10-03T15:55:26.983Z,15.26
2018-10-03T15:57:55.262Z,15.38
2018-10-03T16:00:23.558Z,15.29
2018-10-03T16:02:51.851Z,15.30
2018-10-03T16:05:20.143Z,15.31
2018-10-03T16:07:48.427Z,15.24
2018-10-03T16:10:16.719Z,15.19
2018-10-03T16:12:44.999Z,15.23
2018-10-03T16:15:13.284Z,15.17
2018-10-03T16:17:41.585Z,14.97
2018-10-03T16:20:09.864Z,15.00
2018-10-03T16:22:38.152Z,14.85
2018-10-03T16:25:06.444Z,14.90
2018-10-03T16:27:34.975Z,14.89
2018-10-03T16:30:03.223Z,14.89
2018-10-03T16:32:31.625Z,14.78
2018-10-03T16:34:59.890Z,14.66
2018-10-03T16:37:28.181Z,14.57
2018-10-03T16:39:56.466Z,14.56
2018-10-03T16:42:24.767Z,14.44
2018-10-03T16:44:53.050Z,14.52
2018-10-03T16:47:21.339Z,14.50
2018-10-03T16:49:49.651Z,14.47
2018-10-03T16:52:17.930Z,14.38
2018-10-03T16:54:46.225Z,14.22
2018-10-03T16:57:14.527Z,14.07
2018-10-03T16:59:42.831Z,13.91
2018-10-03T17:02:11.123Z,13.76
2018-10-03T17:04:39.431Z,13.74
2018-10-03T17:07:07.724Z,13.68
2018-10-03T17:09:36.039Z,13.74
2018-10-03T17:12:04.339Z,13.62
2018-10-03T17:14:32.646Z,13.64
2018-10-03T17:17:00.943Z,13.57
2018-10-03T17:19:29.247Z,13.53
2018-10-03T17:21:57.547Z,13.53
2018-10-03T17:24:25.833Z,13.53
2018-10-03T17:26:54.142Z,13.54
2018-10-03T17:29:22.439Z,13.45
2018-10-03T17:31:50.745Z,13.37
2018-10-03T17:34:19.054Z,13.30
2018-10-03T17:36:47.351Z,13.27
2018-10-03T17:39:15.643Z,13.25
2018-10-03T17:41:43.955Z,13.29
2018-10-03T17:44:12.251Z,13.25
2018-10-03T17:46:40.543Z,13.24
2018-10-03T17:49:08.844Z,13.25
2018-10-03T17:51:37.138Z,13.24
2018-10-03T17:54:05.451Z,13.24
2018-10-03T17:56:33.745Z,13.24
2018-10-03T17:59:02.091Z,13.25
2018-10-03T18:01:30.347Z,13.18
2018-10-03T18:03:58.636Z,13.07
2018-10-03T18:06:26.932Z,13.07
2018-10-03T18:08:55.240Z,13.06
2018-10-03T18:11:23.536Z,13.00
2018-10-03T18:13:51.885Z,13.05
2018-10-03T18:16:20.173Z,13.07
2018-10-03T18:18:48.600Z,13.06
2018-10-03T18:21:16.938Z,12.98
2018-10-03T18:23:45.415Z,13.02
2018-10-03T18:26:13.976Z,13.10
2018-10-03T18:28:42.330Z,13.17
2018-10-03T18:31:10.740Z,13.18
2018-10-03T18:33:39.310Z,13.03
2018-10-03T18:36:08.124Z,13.10
2018-10-03T18:38:37.118Z,13.06
2018-10-03T18:41:06.077Z,12.92
2018-10-03T18:43:35.435Z,12.83
2018-10-03T18:46:04.766Z,12.73
2018-10-03T18:48:34.088Z,12.75
2018-10-03T18:51:03.441Z,12.66
2018-10-03T18:53:32.811Z,12.58
2018-10-03T18:56:02.105Z,12.52
2018-10-03T18:58:31.435Z,12.49
2018-10-03T19:01:00.848Z,12.39
2018-10-03T19:03:30.207Z,12.45
2018-10-03T19:05:59.681Z,12.42
2018-10-03T19:08:28.911Z,12.45
2018-10-03T19:10:58.369Z,12.47
2018-10-03T19:13:27.839Z,12.47
2018-10-03T19:15:57.121Z,12.44
2018-10-03T19:18:26.388Z,12.48
2018-10-03T19:20:55.845Z,12.62
2018-10-03T19:23:25.259Z,12.67
2018-10-03T19:25:54.929Z,12.68
2018-10-03T19:28:24.271Z,12.65
2018-10-03T19:30:53.812Z,12.58
2018-10-03T19:33:24.241Z,12.56
2018-10-03T19:35:53.731Z,12.53
2018-10-03T19:38:23.121Z,12.48
2018-10-03T19:40:52.659Z,12.45
2018-10-03T19:43:22.034Z,12.35
2018-10-03T19:45:51.415Z,12.22
2018-10-03T19:48:20.861Z,12.17
2018-10-03T19:50:50.281Z,12.05
2018-10-03T19:53:20.877Z,12.01
2018-10-03T19:55:50.307Z,11.88
2018-10-03T19:58:19.685Z,11.81
2018-10-03T20:00:48.947Z,11.72
2018-10-03T20:03:18.327Z,11.70
2018-10-03T20:05:47.625Z,11.66
2018-10-03T20:08:17.060Z,11.62
2018-10-03T20:10:46.616Z,11.56
2018-10-03T20:13:15.979Z,11.51
2018-10-03T20:15:45.421Z,11.61
2018-10-03T20:18:14.812Z,11.62
2018-10-03T20:20:43.892Z,11.46
2018-10-03T20:23:12.963Z,11.47
2018-10-03T20:25:42.087Z,11.47
2018-10-03T20:28:10.963Z,11.39
2018-10-03T20:30:39.819Z,11.38
2018-10-03T20:33:08.403Z,11.36
2018-10-03T20:35:37.003Z,11.31
2018-10-03T20:38:05.525Z,11.31
2018-10-03T20:40:33.828Z,11.50
2018-10-03T20:43:02.187Z,11.47
2018-10-03T20:45:30.475Z,11.47
2018-10-03T20:47:58.775Z,11.62
2018-10-03T20:50:27.083Z,11.62
2018-10-03T20:52:55.406Z,11.44
2018-10-03T20:55:23.711Z,11.42
2018-10-03T20:57:52.008Z,11.50
2018-10-03T21:00:20.339Z,11.36
2018-10-03T21:02:48.622Z,11.28
2018-10-03T21:05:16.915Z,11.18
2018-10-03T21:07:45.210Z,11.11
2018-10-03T21:10:13.566Z,11.10
2018-10-03T21:12:41.866Z,11.30
2018-10-03T21:15:10.163Z,11.15
2018-10-03T21:17:38.467Z,11.07
2018-10-03T21:20:06.762Z,11.07
2018-10-03T21:22:35.063Z,11.02
2018-10-03T21:25:03.412Z,11.05
2018-10-03T21:27:31.668Z,11.00
2018-10-03T21:29:59.975Z,11.05
2018-10-03T21:32:28.294Z,10.94
2018-10-03T21:34:56.560Z,10.97
2018-10-03T21:37:24.871Z,10.99
2018-10-03T21:39:53.173Z,10.96
2018-10-03T21:42:21.475Z,10.87
2018-10-03T21:44:49.790Z,10.81
2018-10-03T21:47:18.083Z,10.71
2018-10-03T21:49:46.391Z,10.71
2018-10-03T21:52:14.686Z,10.74
2018-10-03T21:54:42.980Z,10.68
2018-10-03T21:57:11.263Z,10.68
2018-10-03T21:59:39.568Z,10.79
2018-10-03T22:02:07.859Z,10.78
2018-10-03T22:04:36.172Z,10.75
2018-10-03T22:07:04.470Z,10.84
2018-10-03T22:09:32.755Z,10.90
2018-10-03T22:12:01.062Z,10.97
2018-10-03T22:14:29.359Z,11.05
2018-10-03T22:16:57.651Z,10.99
2018-10-03T22:19:25.942Z,10.99
2018-10-03T22:21:54.244Z,10.87
2018-10-03T22:24:22.547Z,10.84
2018-10-03T22:26:50.843Z,10.85
2018-10-03T22:29:19.215Z,10.74
2018-10-03T22:31:47.520Z,10.68
2018-10-03T22:34:15.828Z,10.58
2018-10-03T22:36:44.128Z,10.45
2018-10-03T22:39:12.439Z,10.51
2018-10-03T22:41:40.731Z,10.55
2018-10-03T22:44:09.027Z,10.75
2018-10-03T22:46:37.346Z,10.76
2018-10-03T22:49:05.639Z,10.79
2018-10-03T22:51:33.944Z,10.38
2018-10-03T22:54:02.251Z,10.37
2018-10-03T22:56:30.552Z,10.36
2018-10-03T22:58:59.026Z,10.29
2018-10-03T23:01:27.375Z,10.26
2018-10-03T23:03:55.673Z,10.28
2018-10-03T23:06:23.975Z,10.30
2018-10-03T23:08:52.267Z,10.21
2018-10-03T23:11:20.551Z,10.17
2018-10-03T23:13:48.860Z,10.22
2018-10-03T23:16:17.147Z,10.12
2018-10-03T23:18:45.463Z,10.12
2018-10-03T23:21:13.754Z,10.13
2018-10-03T23:23:42.059Z,10.05
2018-10-03T23:26:10.356Z,9.98
2018-10-03T23:28:38.638Z,9.99
2018-10-03T23:31:06.935Z,9.95
2018-10-03T23:33:35.224Z,9.99
2018-10-03T23:36:03.524Z,9.88
2018-10-03T23:38:31.829Z,9.83
2018-10-03T23:41:00.131Z,9.77
2018-10-03T23:43:28.431Z,9.82
2018-10-03T23:45:56.719Z,9.81
2018-10-03T23:48:25.007Z,9.74
2018-10-03T23:50:53.315Z,9.78
2018-10-03T23:53:21.603Z,9.74
2018-10-03T23:55:49.906Z,9.66
2018-10-03T23:58:18.185Z,9.61
